createdAt,value
2019-01-27T00:02:17.729Z,56.20
2019-01-27T00:04:50.807Z,56.60
2019-01-27T00:07:20.631Z,56.80
2019-01-27T00:09:50.421Z,56.10
2019-01-27T00:12:20.123Z,57.70
2019-01-27T00:14:49.967Z,57.00
2019-01-27T00:17:19.636Z,57.30
2019-01-27T00:19:49.375Z,57.00
2019-01-27T00:22:19.048Z,56.90
2019-01-27T00:24:49.068Z,56.80
2019-01-27T00:27:18.723Z,56.10
2019-01-27T00:29:48.402Z,56.60
2019-01-27T00:32:18.142Z,56.90
2019-01-27T00:34:47.791Z,57.00
2019-01-27T00:37:17.599Z,56.90
2019-01-27T00:39:47.410Z,56.40
2019-01-27T00:42:17.262Z,57.00
2019-01-27T00:44:47.302Z,56.40
2019-01-27T00:47:17.055Z,56.60
2019-01-27T00:49:46.725Z,55.80
2019-01-27T00:52:16.535Z,55.80
2019-01-27T00:58:20.889Z,57.00
2019-01-27T01:00:50.630Z,56.40
2019-01-27T01:03:20.471Z,55.40
2019-01-27T01:05:50.095Z,56.70
2019-01-27T01:08:19.872Z,56.00
2019-01-27T01:10:49.594Z,56.90
2019-01-27T01:13:19.269Z,57.20
2019-01-27T01:15:48.972Z,56.80
2019-01-27T01:18:18.742Z,56.60
2019-01-27T01:20:48.472Z,56.50
2019-01-27T01:23:18.186Z,56.80
2019-01-27T01:25:48.019Z,56.20
2019-01-27T01:28:17.687Z,57.20
2019-01-27T01:30:47.531Z,56.70
2019-01-27T01:33:17.449Z,56.70
2019-01-27T01:35:47.158Z,56.30
2019-01-27T01:38:16.914Z,56.80
2019-01-27T01:40:47.966Z,56.80
2019-01-27T01:43:17.937Z,56.90
2019-01-27T01:45:47.690Z,57.10
2019-01-27T01:48:17.412Z,57.00
2019-01-27T01:50:47.059Z,57.10
2019-01-27T01:53:16.754Z,57.00
2019-01-27T01:55:46.429Z,57.30
2019-01-27T01:58:16.126Z,57.10
2019-01-27T02:00:45.786Z,57.40
2019-01-27T02:03:16.483Z,58.10
2019-01-27T02:05:46.137Z,57.30
2019-01-27T02:08:15.807Z,57.90
2019-01-27T02:10:45.610Z,58.00
2019-01-27T02:13:15.275Z,57.90
2019-01-27T02:16:07.614Z,56.70
2019-01-27T02:18:38.285Z,57.60
2019-01-27T02:21:08.368Z,57.20
2019-01-27T02:23:38.406Z,57.20
2019-01-27T02:26:08.874Z,57.10
2019-01-27T02:28:38.666Z,57.10
2019-01-27T02:31:08.491Z,57.30
2019-01-27T02:33:38.289Z,57.40
2019-01-27T02:36:08.019Z,57.00
2019-01-27T02:38:37.675Z,57.90
2019-01-27T02:41:07.494Z,57.70
2019-01-27T02:43:37.169Z,57.40
2019-01-27T02:46:07.165Z,57.70
2019-01-27T02:48:36.897Z,58.30
2019-01-27T02:51:06.645Z,58.40
2019-01-27T02:53:36.368Z,58.60
2019-01-27T02:56:06.319Z,58.40
2019-01-27T02:58:36.048Z,57.10
2019-01-27T03:01:05.982Z,59.40
2019-01-27T03:03:35.774Z,58.80
2019-01-27T03:06:16.728Z,58.50
2019-01-27T03:09:08.606Z,58.50
2019-01-27T03:11:51.087Z,58.00
2019-01-27T03:14:22.106Z,58.30
2019-01-27T03:16:53.299Z,58.60
2019-01-27T03:19:23.023Z,58.20
2019-01-27T03:21:52.853Z,58.70
2019-01-27T03:24:23.558Z,58.70
2019-01-27T03:26:54.247Z,59.20
2019-01-27T03:29:23.903Z,59.30
2019-01-27T03:31:53.577Z,58.60
2019-01-27T03:34:23.294Z,59.00
2019-01-27T03:36:53.204Z,59.00
2019-01-27T03:39:22.859Z,58.50
2019-01-27T03:41:52.650Z,58.80
2019-01-27T03:44:22.294Z,58.70
2019-01-27T03:46:52.135Z,58.60
2019-01-27T03:49:21.781Z,58.90
2019-01-27T03:51:51.431Z,59.00
2019-01-27T03:54:21.081Z,58.60
2019-01-27T03:56:50.807Z,58.50
2019-01-27T03:59:20.469Z,58.90
2019-01-27T04:01:50.142Z,59.00
2019-01-27T04:04:19.872Z,59.50
2019-01-27T04:06:49.532Z,58.80
2019-01-27T04:09:19.194Z,58.50
2019-01-27T04:11:48.918Z,58.20
2019-01-27T04:14:18.588Z,58.60
2019-01-27T04:16:48.218Z,57.90
2019-01-27T04:19:18.034Z,58.80
2019-01-27T04:21:47.699Z,58.80
2019-01-27T04:24:17.387Z,58.60
2019-01-27T04:26:47.153Z,58.00
2019-01-27T04:29:16.814Z,58.10
2019-01-27T04:31:46.457Z,57.80
2019-01-27T04:34:17.163Z,58.00
2019-01-27T04:36:46.812Z,58.10
2019-01-27T04:39:16.536Z,58.50
2019-01-27T04:41:46.250Z,58.10
2019-01-27T04:44:16.085Z,58.70
2019-01-27T04:46:45.757Z,58.40
2019-01-27T04:49:15.428Z,58.60
2019-01-27T04:51:45.116Z,58.30
2019-01-27T04:54:14.793Z,57.60
2019-01-27T04:56:44.452Z,58.70
2019-01-27T04:59:14.110Z,59.40
2019-01-27T05:01:43.847Z,58.70
2019-01-27T05:04:29.409Z,59.30
2019-01-27T05:06:59.158Z,58.90
2019-01-27T05:09:28.925Z,58.00
2019-01-27T05:11:58.567Z,58.10
2019-01-27T05:14:28.243Z,57.70
2019-01-27T05:16:57.968Z,57.40
2019-01-27T05:19:27.713Z,57.70
2019-01-27T05:21:57.502Z,57.90
2019-01-27T05:24:31.888Z,57.40
2019-01-27T05:27:02.386Z,57.20
2019-01-27T05:29:33.329Z,57.40
2019-01-27T05:32:04.039Z,57.00
2019-01-27T05:34:34.038Z,57.20
2019-01-27T05:37:03.821Z,57.10
2019-01-27T05:39:33.569Z,56.50
2019-01-27T05:42:03.410Z,57.00
2019-01-27T05:44:33.086Z,56.80
2019-01-27T05:47:02.757Z,57.20
2019-01-27T05:49:32.736Z,57.20
2019-01-27T05:52:02.619Z,56.70
2019-01-27T05:54:32.294Z,57.40
2019-01-27T05:57:01.969Z,57.20
2019-01-27T05:59:31.682Z,57.00
2019-01-27T06:02:01.434Z,56.80
2019-01-27T06:04:31.380Z,56.60
2019-01-27T06:07:01.234Z,56.70
2019-01-27T06:09:31.245Z,56.60
2019-01-27T06:12:00.923Z,56.60
2019-01-27T06:14:30.627Z,56.30
2019-01-27T06:17:00.417Z,55.90
2019-01-27T06:19:30.108Z,56.70
2019-01-27T06:21:59.756Z,56.20
2019-01-27T06:24:29.398Z,57.20
2019-01-27T06:26:59.072Z,56.40
2019-01-27T06:29:28.824Z,57.20
2019-01-27T06:31:58.502Z,56.30
2019-01-27T06:34:28.196Z,57.10
2019-01-27T06:36:57.922Z,56.90
2019-01-27T06:39:27.619Z,56.30
2019-01-27T06:41:57.278Z,55.50
2019-01-27T06:44:26.975Z,56.40
2019-01-27T06:46:56.705Z,57.50
2019-01-27T06:49:26.638Z,57.00
2019-01-27T06:51:56.361Z,57.30
2019-01-27T06:54:26.124Z,56.90
2019-01-27T06:56:56.049Z,56.60
2019-01-27T06:59:39.964Z,56.00
2019-01-27T07:02:16.118Z,56.20
2019-01-27T07:04:54.560Z,55.90
2019-01-27T07:07:38.151Z,55.60
2019-01-27T07:10:40.396Z,55.40
2019-01-27T07:13:18.989Z,55.60
2019-01-27T07:16:19.917Z,55.90
2019-01-27T07:19:17.594Z,55.90
2019-01-27T07:21:55.964Z,55.60
2019-01-27T07:24:41.034Z,55.30
2019-01-27T07:27:30.949Z,55.10
2019-01-27T07:30:31.718Z,54.90
2019-01-27T07:33:18.886Z,55.20
2019-01-27T07:36:19.856Z,55.10
2019-01-27T07:39:05.863Z,55.10
2019-01-27T07:41:57.590Z,55.70
2019-01-27T07:44:42.114Z,55.10
2019-01-27T07:47:23.439Z,54.90
2019-01-27T07:50:15.982Z,54.60
2019-01-27T07:52:58.313Z,54.50
2019-01-27T07:55:56.003Z,54.40
2019-01-27T07:58:32.363Z,54.70
2019-01-27T08:01:07.783Z,54.80
2019-01-27T08:03:51.625Z,54.80
2019-01-27T08:06:27.410Z,54.50
2019-01-27T08:09:16.173Z,54.40
2019-01-27T08:12:07.996Z,54.70
2019-01-27T08:14:59.592Z,54.80
2019-01-27T08:17:39.712Z,54.90
2019-01-27T08:20:27.779Z,54.50
2019-01-27T08:23:25.574Z,55.20
2019-01-27T08:26:01.411Z,54.60
2019-01-27T08:28:52.634Z,54.00
2019-01-27T08:31:28.703Z,54.50
2019-01-27T08:34:15.907Z,54.10
2019-01-27T08:36:54.012Z,54.20
2019-01-27T08:39:31.723Z,54.40
2019-01-27T08:42:20.484Z,55.60
2019-01-27T08:45:09.234Z,55.10
2019-01-27T08:47:39.143Z,57.80
2019-01-27T08:50:14.032Z,59.30
2019-01-27T08:52:43.713Z,59.20
2019-01-27T08:55:14.348Z,56.90
2019-01-27T08:57:44.115Z,56.30
2019-01-27T09:03:38.791Z,55.60
2019-01-27T09:06:34.823Z,55.70
2019-01-27T09:13:14.747Z,56.00
2019-01-27T09:16:27.219Z,55.40
2019-01-27T09:19:06.484Z,55.00
2019-01-27T09:22:11.622Z,54.90
2019-01-27T09:25:40.348Z,55.00
2019-01-27T09:28:50.795Z,55.30
2019-01-27T09:31:28.367Z,55.00
2019-01-27T09:34:21.603Z,53.60
2019-01-27T09:37:08.212Z,55.30
2019-01-27T09:39:55.615Z,55.10
2019-01-27T09:42:50.368Z,54.70
2019-01-27T09:45:33.306Z,54.90
2019-01-27T09:48:27.392Z,53.70
2019-01-27T09:51:07.459Z,55.20
2019-01-27T09:53:50.319Z,56.50
2019-01-27T09:56:37.807Z,56.70
2019-01-27T09:59:41.797Z,55.40
2019-01-27T10:02:34.900Z,53.50
2019-01-27T10:05:24.869Z,52.30
2019-01-27T10:08:03.149Z,52.20
2019-01-27T10:10:39.862Z,54.10
2019-01-27T10:13:27.264Z,54.50
2019-01-27T10:16:25.278Z,54.60
2019-01-27T10:19:01.804Z,54.30
2019-01-27T10:21:38.639Z,54.10
2019-01-27T10:24:24.513Z,54.00
2019-01-27T10:27:11.913Z,54.10
2019-01-27T10:29:52.506Z,54.10
2019-01-27T10:32:44.797Z,53.90
2019-01-27T10:35:32.227Z,53.50
2019-01-27T10:38:22.122Z,53.60
2019-01-27T10:41:09.380Z,53.60
2019-01-27T10:43:57.089Z,53.60
2019-01-27T10:46:39.588Z,53.40
2019-01-27T10:49:21.623Z,53.20
2019-01-27T10:52:05.759Z,53.10
2019-01-27T10:54:58.713Z,53.00
2019-01-27T10:57:40.303Z,53.20
2019-01-27T11:00:23.808Z,53.20
2019-01-27T11:03:12.587Z,53.20
2019-01-27T11:06:05.073Z,53.20
2019-01-27T11:08:42.531Z,53.20
2019-01-27T11:11:31.481Z,53.10
2019-01-27T11:14:23.423Z,53.10
2019-01-27T11:17:10.600Z,53.00
2019-01-27T11:19:46.542Z,53.00
2019-01-27T11:22:35.534Z,52.80
2019-01-27T11:25:23.851Z,52.70
2019-01-27T11:28:02.937Z,52.60
2019-01-27T11:30:48.789Z,52.70
2019-01-27T11:33:43.500Z,52.80
2019-01-27T11:36:26.166Z,52.90
2019-01-27T11:39:17.952Z,53.10
2019-01-27T11:42:05.377Z,53.10
2019-01-27T11:44:52.783Z,53.10
2019-01-27T11:47:40.180Z,53.10
2019-01-27T11:50:18.288Z,53.10
2019-01-27T11:52:52.455Z,53.10
2019-01-27T11:55:22.266Z,53.10
2019-01-27T11:57:51.922Z,53.00
2019-01-27T12:00:26.221Z,53.10
2019-01-27T12:02:55.886Z,53.00
2019-01-27T12:05:25.647Z,53.00
2019-01-27T12:07:55.383Z,52.90
2019-01-27T12:10:25.207Z,52.90
2019-01-27T12:12:54.940Z,52.90
2019-01-27T12:15:25.199Z,52.90
2019-01-27T12:17:54.930Z,52.90
2019-01-27T12:20:24.714Z,53.00
2019-01-27T12:22:55.409Z,53.10
2019-01-27T12:25:25.164Z,53.20
2019-01-27T12:27:54.834Z,53.20
2019-01-27T12:30:24.742Z,53.20
2019-01-27T12:32:57.335Z,53.30
2019-01-27T12:35:27.064Z,54.00
2019-01-27T12:37:56.747Z,53.40
2019-01-27T12:40:26.592Z,53.50
2019-01-27T12:42:56.402Z,53.60
2019-01-27T12:45:26.113Z,53.70
2019-01-27T12:47:55.827Z,53.70
2019-01-27T12:50:25.601Z,54.00
2019-01-27T12:52:58.179Z,53.90
2019-01-27T12:55:27.903Z,53.80
2019-01-27T12:57:59.607Z,53.40
2019-01-27T13:00:32.574Z,53.20
2019-01-27T13:03:02.447Z,53.10
2019-01-27T13:05:32.262Z,53.10
2019-01-27T13:08:02.047Z,53.10
2019-01-27T13:10:31.693Z,53.10
2019-01-27T13:13:01.495Z,53.10
2019-01-27T13:15:31.176Z,53.10
2019-01-27T13:18:01.632Z,53.10
2019-01-27T13:20:31.324Z,53.00
2019-01-27T13:23:01.818Z,53.10
2019-01-27T13:25:31.619Z,53.10
2019-01-27T13:28:01.463Z,53.20
2019-01-27T13:30:31.186Z,53.30
2019-01-27T13:33:03.308Z,53.10
2019-01-27T13:35:38.850Z,53.20
2019-01-27T13:38:07.742Z,53.10
2019-01-27T13:40:41.103Z,53.20
2019-01-27T13:43:10.823Z,53.10
2019-01-27T13:45:40.485Z,53.20
2019-01-27T13:48:10.227Z,53.30
2019-01-27T13:50:40.181Z,53.20
2019-01-27T13:53:09.922Z,53.20
2019-01-27T13:55:39.577Z,53.20
2019-01-27T13:58:09.424Z,53.30
2019-01-27T14:00:39.197Z,53.20
2019-01-27T14:03:08.869Z,53.20
2019-01-27T14:05:38.864Z,53.30
2019-01-27T14:08:10.306Z,53.10
2019-01-27T14:10:40.098Z,52.90
2019-01-27T14:13:09.836Z,52.90
2019-01-27T14:15:39.652Z,52.90
2019-01-27T14:18:10.783Z,53.20
2019-01-27T14:20:40.516Z,54.70
2019-01-27T14:23:10.210Z,55.20
2019-01-27T14:25:39.951Z,55.60
2019-01-27T14:28:09.770Z,55.60
2019-01-27T14:30:41.642Z,56.00
2019-01-27T14:33:11.404Z,56.00
2019-01-27T14:35:41.084Z,56.50
2019-01-27T14:38:10.844Z,56.00
2019-01-27T14:40:40.626Z,56.90
2019-01-27T14:43:10.351Z,56.60
2019-01-27T14:45:40.022Z,57.00
2019-01-27T14:48:09.833Z,56.80
2019-01-27T14:50:42.544Z,56.80
2019-01-27T14:53:14.657Z,56.80
2019-01-27T14:55:44.455Z,56.80
2019-01-27T14:58:14.186Z,56.80
2019-01-27T15:00:48.223Z,57.30
2019-01-27T15:03:17.949Z,56.80
2019-01-27T15:05:47.584Z,56.80
2019-01-27T15:08:17.364Z,56.90
2019-01-27T15:10:52.980Z,57.10
2019-01-27T15:13:28.212Z,57.30
2019-01-27T15:15:58.384Z,57.10
2019-01-27T15:18:29.807Z,58.00
2019-01-27T15:21:03.626Z,57.20
2019-01-27T15:23:33.337Z,57.10
2019-01-27T15:26:06.248Z,56.90
2019-01-27T15:28:36.004Z,56.60
2019-01-27T15:33:59.873Z,56.60
2019-01-27T15:36:29.575Z,56.40
2019-01-27T15:38:59.255Z,56.40
2019-01-27T15:41:28.912Z,56.30
2019-01-27T15:43:58.577Z,56.20
2019-01-27T15:46:28.296Z,56.20
2019-01-27T15:48:57.969Z,55.80
2019-01-27T15:51:27.759Z,56.30
2019-01-27T15:53:57.421Z,56.10
2019-01-27T15:56:27.077Z,56.00
2019-01-27T15:58:57.789Z,56.20
2019-01-27T16:01:27.441Z,57.40
2019-01-27T16:03:57.115Z,57.40
2019-01-27T16:06:26.856Z,56.50
2019-01-27T16:08:56.539Z,55.50
2019-01-27T16:11:26.294Z,56.20
2019-01-27T16:13:56.023Z,57.10
2019-01-27T16:16:25.686Z,56.90
2019-01-27T16:18:58.944Z,56.10
2019-01-27T16:21:26.703Z,55.70
2019-01-27T16:23:59.681Z,55.60
2019-01-27T16:26:29.343Z,55.70
2019-01-27T16:28:59.130Z,55.50
2019-01-27T16:31:47.887Z,55.50
2019-01-27T16:34:36.627Z,55.30
2019-01-27T16:37:06.423Z,54.80
2019-01-27T16:39:36.167Z,55.10
2019-01-27T16:42:05.946Z,55.20
2019-01-27T16:44:35.683Z,55.20
2019-01-27T16:47:05.611Z,55.80
2019-01-27T16:49:35.264Z,55.70
2019-01-27T16:52:05.285Z,55.20
2019-01-27T16:54:36.227Z,54.50
2019-01-27T16:57:06.071Z,55.00
2019-01-27T16:59:35.807Z,55.70
2019-01-27T17:02:05.732Z,55.00
2019-01-27T17:04:35.385Z,55.60
2019-01-27T17:07:05.706Z,55.30
2019-01-27T17:09:35.489Z,55.40
2019-01-27T17:12:05.503Z,55.20
2019-01-27T17:14:35.528Z,54.90
2019-01-27T17:17:05.375Z,55.10
2019-01-27T17:19:35.083Z,55.40
2019-01-27T17:22:04.830Z,55.00
2019-01-27T17:24:34.462Z,55.60
2019-01-27T17:27:04.197Z,55.10
2019-01-27T17:29:33.855Z,55.20
2019-01-27T17:32:04.069Z,54.50
2019-01-27T17:34:33.768Z,55.10
2019-01-27T17:37:03.708Z,55.10
2019-01-27T17:39:33.580Z,54.40
2019-01-27T17:42:03.401Z,54.60
2019-01-27T17:44:33.040Z,54.70
2019-01-27T17:47:15.288Z,54.70
2019-01-27T17:49:45.090Z,54.70
2019-01-27T17:52:14.779Z,54.60
2019-01-27T17:54:44.440Z,54.30
2019-01-27T17:57:48.158Z,55.00
2019-01-27T18:00:35.679Z,54.80
2019-01-27T18:03:21.470Z,54.80
2019-01-27T18:06:17.571Z,54.50
2019-01-27T18:08:54.656Z,54.80
2019-01-27T18:11:36.151Z,54.60
2019-01-27T18:14:13.048Z,53.80
2019-01-27T18:16:42.814Z,53.70
2019-01-27T18:19:12.509Z,54.60
2019-01-27T18:21:42.195Z,54.10
2019-01-27T18:24:11.939Z,54.40
2019-01-27T18:26:41.613Z,53.60
2019-01-27T18:29:11.247Z,55.00
2019-01-27T18:31:41.002Z,55.20
2019-01-27T18:34:10.646Z,53.90
2019-01-27T18:36:40.343Z,55.10
2019-01-27T18:39:11.837Z,54.80
2019-01-27T18:41:41.816Z,54.60
2019-01-27T18:44:11.565Z,54.20
2019-01-27T18:46:42.514Z,54.20
2019-01-27T18:49:12.237Z,54.40
2019-01-27T18:51:41.855Z,54.40
2019-01-27T18:54:24.583Z,53.70
2019-01-27T18:56:59.410Z,54.40
2019-01-27T18:59:43.195Z,53.50
2019-01-27T19:02:21.382Z,54.80
2019-01-27T19:05:15.568Z,53.60
2019-01-27T19:08:19.505Z,54.40
2019-01-27T19:11:00.124Z,54.40
2019-01-27T19:13:45.607Z,53.50
2019-01-27T19:16:22.955Z,54.80
2019-01-27T19:19:09.683Z,55.40
2019-01-27T19:21:48.813Z,55.30
2019-01-27T19:24:36.318Z,55.00
2019-01-27T19:27:21.599Z,54.60
2019-01-27T19:29:57.843Z,53.90
2019-01-27T19:32:49.677Z,53.40
2019-01-27T19:35:41.219Z,53.60
2019-01-27T19:38:16.642Z,53.10
2019-01-27T19:41:04.030Z,54.20
2019-01-27T19:43:55.430Z,54.60
2019-01-27T19:46:42.671Z,54.30
2019-01-27T19:49:30.332Z,53.70
2019-01-27T19:52:20.043Z,53.80
2019-01-27T19:55:07.255Z,53.10
2019-01-27T19:58:05.126Z,53.90
2019-01-27T20:00:52.326Z,54.20
2019-01-27T20:03:46.966Z,53.70
2019-01-27T20:06:24.146Z,53.50
2019-01-27T20:09:18.023Z,54.00
2019-01-27T20:11:59.001Z,54.20
2019-01-27T20:14:46.198Z,54.10
2019-01-27T20:17:44.042Z,53.80
2019-01-27T20:20:26.760Z,54.00
2019-01-27T20:23:08.782Z,53.70
2019-01-27T20:25:57.490Z,53.70
2019-01-27T20:28:44.966Z,53.60
2019-01-27T20:31:24.858Z,53.80
2019-01-27T20:34:09.518Z,54.00
2019-01-27T20:36:58.305Z,53.30
2019-01-27T20:39:33.446Z,53.70
2019-01-27T20:42:37.429Z,53.70
2019-01-27T20:45:18.790Z,53.60
2019-01-27T20:47:57.767Z,53.70
2019-01-27T20:50:41.667Z,53.40
2019-01-27T20:53:36.205Z,53.50
2019-01-27T20:56:34.007Z,53.30
2019-01-27T20:59:17.449Z,53.40
2019-01-27T21:02:07.091Z,53.00
2019-01-27T21:04:58.691Z,54.00
2019-01-27T21:07:33.810Z,54.30
2019-01-27T21:10:21.371Z,54.50
2019-01-27T21:13:01.615Z,54.00
2019-01-27T21:15:44.555Z,54.20
2019-01-27T21:18:32.735Z,54.10
2019-01-27T21:21:03.422Z,54.20
2019-01-27T21:23:33.046Z,54.20
2019-01-27T21:26:02.779Z,54.60
2019-01-27T21:28:32.394Z,53.90
2019-01-27T21:31:02.166Z,54.80
2019-01-27T21:33:31.776Z,53.90
2019-01-27T21:36:01.408Z,54.60
2019-01-27T21:38:31.026Z,54.40
2019-01-27T21:41:00.724Z,54.70
2019-01-27T21:43:30.347Z,54.50
2019-01-27T21:46:00.049Z,53.70
2019-01-27T21:48:29.675Z,54.40
2019-01-27T21:50:59.306Z,54.20
2019-01-27T21:53:28.932Z,54.60
2019-01-27T21:55:58.649Z,54.70
2019-01-27T21:58:28.256Z,54.70
2019-01-27T22:00:57.891Z,53.50
2019-01-27T22:03:27.525Z,53.30
2019-01-27T22:05:57.201Z,53.30
2019-01-27T22:08:26.898Z,53.80
2019-01-27T22:10:56.518Z,53.80
2019-01-27T22:13:26.207Z,53.70
2019-01-27T22:15:55.830Z,53.70
2019-01-27T22:18:25.454Z,53.20
2019-01-27T22:20:55.155Z,53.20
2019-01-27T22:23:24.775Z,52.80
2019-01-27T22:25:54.411Z,53.10
2019-01-27T22:28:24.099Z,53.30
2019-01-27T22:30:53.879Z,52.90
2019-01-27T22:33:23.583Z,53.40
2019-01-27T22:35:53.215Z,53.60
2019-01-27T22:38:22.839Z,52.90
2019-01-27T22:40:52.518Z,53.10
2019-01-27T22:43:22.176Z,53.10
2019-01-27T22:45:51.795Z,53.30
2019-01-27T22:48:21.410Z,52.70
2019-01-27T22:50:51.030Z,53.10
2019-01-27T22:53:20.735Z,53.20
2019-01-27T22:55:50.351Z,53.10
2019-01-27T22:58:19.975Z,52.50
2019-01-27T23:01:01.303Z,53.20
2019-01-27T23:03:36.646Z,53.20
2019-01-27T23:06:06.546Z,52.60
2019-01-27T23:08:36.182Z,52.70
2019-01-27T23:11:06.038Z,52.50
2019-01-27T23:13:35.738Z,52.40
2019-01-27T23:16:05.527Z,53.00
2019-01-27T23:18:35.138Z,52.80
2019-01-27T23:21:04.935Z,52.50
2019-01-27T23:23:34.554Z,53.30
2019-01-27T23:26:04.331Z,52.60
2019-01-27T23:28:33.947Z,52.80
2019-01-27T23:31:03.706Z,52.80
2019-01-27T23:33:33.341Z,53.20
2019-01-27T23:36:03.031Z,53.50
2019-01-27T23:38:32.731Z,53.80
2019-01-27T23:41:02.356Z,53.90
2019-01-27T23:43:31.962Z,53.70
2019-01-27T23:46:01.651Z,53.10
2019-01-27T23:48:31.446Z,53.20
2019-01-27T23:51:01.148Z,53.70
2019-01-27T23:53:30.855Z,53.30
2019-01-27T23:56:00.474Z,53.00
2019-01-27T23:58:30.178Z,52.50
